sensor_id;sensor_type;location;lat;lon;timestamp;pressure;altitude;pressure_sealevel;temperature;humidity
42111;BME280;27766;52.174;5.456;2022-12-29T00:01:00;99815.22;;;9.87;100.00
42111;BME280;27766;52.174;5.456;2022-12-29T00:03:28;99810.09;;;9.92;100.00
42111;BME280;27766;52.174;5.456;2022-12-29T00:05:56;99798.00;;;9.94;100.00
42111;BME280;27766;52.174;5.456;2022-12-29T00:08:24;99797.16;;;9.96;100.00
42111;BME280;27766;52.174;5.456;2022-12-29T00:13:34;99784.25;;;10.01;100.00
42111;BME280;27766;52.174;5.456;2022-12-29T00:16:21;99771.31;;;10.01;100.00
42111;BME280;27766;52.174;5.456;2022-12-29T00:18:49;99784.28;;;10.10;100.00
42111;BME280;27766;52.174;5.456;2022-12-29T00:21:18;99766.19;;;10.09;100.00
42111;BME280;27766;52.174;5.456;2022-12-29T00:24:09;99772.22;;;10.09;100.00
42111;BME280;27766;52.174;5.456;2022-12-29T00:27:07;99761.03;;;10.21;100.00
42111;BME280;27766;52.174;5.456;2022-12-29T00:29:54;99767.09;;;10.22;100.00
42111;BME280;27766;52.174;5.456;2022-12-29T00:32:40;99764.47;;;10.20;100.00
42111;BME280;27766;52.174;5.456;2022-12-29T00:35:32;99753.28;;;10.20;100.00
42111;BME280;27766;52.174;5.456;2022-12-29T00:38:03;99756.75;;;10.23;100.00
42111;BME280;27766;52.174;5.456;2022-12-29T00:40:50;99760.19;;;10.27;100.00
42111;BME280;27766;52.174;5.456;2022-12-29T00:43:38;99749.00;;;10.28;100.00
42111;BME280;27766;52.174;5.456;2022-12-29T00:46:24;99749.00;;;10.26;100.00
42111;BME280;27766;52.174;5.456;2022-12-29T00:48:51;99740.38;;;10.26;100.00
42111;BME280;27766;52.174;5.456;2022-12-29T00:51:37;99736.06;;;10.29;100.00
42111;BME280;27766;52.174;5.456;2022-12-29T00:54:05;99724.84;;;10.32;100.00
42111;BME280;27766;52.174;5.456;2022-12-29T00:56:33;99719.69;;;10.30;100.00
42111;BME280;27766;52.174;5.456;2022-12-29T00:59:01;99699.84;;;10.23;100.00
42111;BME280;27766;52.174;5.456;2022-12-29T01:01:29;99710.22;;;10.34;100.00
42111;BME280;27766;52.174;5.456;2022-12-29T01:03:56;99718.00;;;10.37;100.00
42111;BME280;27766;52.174;5.456;2022-12-29T01:06:30;99710.22;;;10.34;100.00
42111;BME280;27766;52.174;5.456;2022-12-29T01:08:59;99706.75;;;10.35;100.00
42111;BME280;27766;52.174;5.456;2022-12-29T01:11:44;99699.00;;;10.29;100.00
42111;BME280;27766;52.174;5.456;2022-12-29T01:14:12;99696.41;;;10.26;100.00
42111;BME280;27766;52.174;5.456;2022-12-29T01:16:39;99686.06;;;10.26;100.00
42111;BME280;27766;52.174;5.456;2022-12-29T01:19:06;99688.63;;;10.26;100.00
42111;BME280;27766;52.174;5.456;2022-12-29T01:21:33;99679.16;;;10.25;100.00
42111;BME280;27766;52.174;5.456;2022-12-29T01:24:01;99694.66;;;10.19;100.00
42111;BME280;27766;52.174;5.456;2022-12-29T01:26:28;99700.69;;;10.16;100.00
42111;BME280;27766;52.174;5.456;2022-12-29T01:28:55;99691.22;;;10.09;100.00
42111;BME280;27766;52.174;5.456;2022-12-29T01:31:22;99700.69;;;9.99;100.00
42111;BME280;27766;52.174;5.456;2022-12-29T01:33:49;99698.94;;;9.96;100.00
42111;BME280;27766;52.174;5.456;2022-12-29T01:36:17;99682.56;;;9.84;100.00
42111;BME280;27766;52.174;5.456;2022-12-29T01:38:44;99690.25;;;9.77;100.00
42111;BME280;27766;52.174;5.456;2022-12-29T01:41:13;99699.72;;;9.66;100.00
42111;BME280;27766;52.174;5.456;2022-12-29T01:43:45;99695.41;;;9.63;100.00
42111;BME280;27766;52.174;5.456;2022-12-29T01:51:38;99687.63;;;9.53;100.00
42111;BME280;27766;52.174;5.456;2022-12-29T01:54:13;99696.22;;;9.53;100.00
42111;BME280;27766;52.174;5.456;2022-12-29T01:56:44;99704.78;;;9.47;100.00
42111;BME280;27766;52.174;5.456;2022-12-29T01:59:16;99703.06;;;9.43;100.00
42111;BME280;27766;52.174;5.456;2022-12-29T02:01:44;99693.63;;;9.47;100.00
42111;BME280;27766;52.174;5.456;2022-12-29T02:04:12;99712.56;;;9.52;100.00
42111;BME280;27766;52.174;5.456;2022-12-29T02:06:45;99696.25;;;9.56;100.00
42111;BME280;27766;52.174;5.456;2022-12-29T02:09:14;99706.56;;;9.59;100.00
42111;BME280;27766;52.174;5.456;2022-12-29T02:11:41;99696.25;;;9.61;100.00
42111;BME280;27766;52.174;5.456;2022-12-29T02:14:12;99690.22;;;9.59;100.00
42111;BME280;27766;52.174;5.456;2022-12-29T02:31:46;99704.88;;;9.66;100.00
42111;BME280;27766;52.174;5.456;2022-12-29T02:34:30;99701.44;;;9.61;100.00
42111;BME280;27766;52.174;5.456;2022-12-29T02:37:14;99700.53;;;9.60;100.00
42111;BME280;27766;52.174;5.456;2022-12-29T02:39:52;99701.41;;;9.58;100.00
42111;BME280;27766;52.174;5.456;2022-12-29T02:42:42;99684.13;;;9.47;100.00
42111;BME280;27766;52.174;5.456;2022-12-29T02:45:26;99683.31;;;9.59;100.00
42111;BME280;27766;52.174;5.456;2022-12-29T02:50:49;99683.31;;;9.53;100.00
42111;BME280;27766;52.174;5.456;2022-12-29T02:53:18;99703.13;;;9.53;100.00
42111;BME280;27766;52.174;5.456;2022-12-29T02:56:07;99676.44;;;9.55;100.00
42111;BME280;27766;52.174;5.456;2022-12-29T02:58:34;99691.03;;;9.55;100.00
42111;BME280;27766;52.174;5.456;2022-12-29T03:07:19;99688.47;;;9.52;100.00
42111;BME280;27766;52.174;5.456;2022-12-29T03:10:23;99690.19;;;9.48;100.00
42111;BME280;27766;52.174;5.456;2022-12-29T03:15:55;99691.91;;;9.58;100.00
42111;BME280;27766;52.174;5.456;2022-12-29T03:21:16;99678.13;;;9.48;100.00
42111;BME280;27766;52.174;5.456;2022-12-29T03:23:46;99688.44;;;9.48;100.00
42111;BME280;27766;52.174;5.456;2022-12-29T03:26:19;99697.94;;;9.53;100.00
42111;BME280;27766;52.174;5.456;2022-12-29T03:28:51;99681.59;;;9.55;100.00
42111;BME280;27766;52.174;5.456;2022-12-29T03:31:21;99691.06;;;9.53;100.00
42111;BME280;27766;52.174;5.456;2022-12-29T03:33:51;99677.25;;;9.49;100.00
42111;BME280;27766;52.174;5.456;2022-12-29T03:36:27;99678.97;;;9.44;100.00
42111;BME280;27766;52.174;5.456;2022-12-29T03:39:02;99677.25;;;9.43;100.00
42111;BME280;27766;52.174;5.456;2022-12-29T03:41:33;99663.44;;;9.33;100.00
42111;BME280;27766;52.174;5.456;2022-12-29T03:44:01;99672.91;;;9.36;100.00
42111;BME280;27766;52.174;5.456;2022-12-29T03:46:28;99673.75;;;9.37;100.00
42111;BME280;27766;52.174;5.456;2022-12-29T03:48:55;99682.38;;;9.32;100.00
42111;BME280;27766;52.174;5.456;2022-12-29T03:51:22;99681.50;;;9.33;100.00
42111;BME280;27766;52.174;5.456;2022-12-29T03:53:49;99672.00;;;9.29;100.00
42111;BME280;27766;52.174;5.456;2022-12-29T03:56:16;99688.38;;;9.30;100.00
42111;BME280;27766;52.174;5.456;2022-12-29T03:58:44;99678.91;;;9.29;100.00
42111;BME280;27766;52.174;5.456;2022-12-29T04:01:11;99679.72;;;9.25;100.00
42111;BME280;27766;52.174;5.456;2022-12-29T04:03:38;99673.72;;;9.26;100.00
42111;BME280;27766;52.174;5.456;2022-12-29T04:06:05;99672.00;;;9.28;100.00
42111;BME280;27766;52.174;5.456;2022-12-29T04:08:34;99670.25;;;9.24;100.00
42111;BME280;27766;52.174;5.456;2022-12-29T04:11:01;99665.13;;;9.27;100.00
42111;BME280;27766;52.174;5.456;2022-12-29T04:13:28;99676.31;;;9.29;100.00
42111;BME280;27766;52.174;5.456;2022-12-29T04:15:55;99684.06;;;9.29;100.00
42111;BME280;27766;52.174;5.456;2022-12-29T04:18:22;99682.34;;;9.35;100.00
42111;BME280;27766;52.174;5.456;2022-12-29T04:20:49;99692.69;;;9.31;100.00
42111;BME280;27766;52.174;5.456;2022-12-29T04:23:32;99701.28;;;9.33;100.00
42111;BME280;27766;52.174;5.456;2022-12-29T04:26:00;99699.59;;;9.37;100.00
42111;BME280;27766;52.174;5.456;2022-12-29T04:28:27;99705.63;;;9.37;100.00
42111;BME280;27766;52.174;5.456;2022-12-29T04:30:54;99711.66;;;9.38;100.00
42111;BME280;27766;52.174;5.456;2022-12-29T04:33:22;99703.91;;;9.38;100.00
42111;BME280;27766;52.174;5.456;2022-12-29T04:35:49;99716.88;;;9.45;100.00
42111;BME280;27766;52.174;5.456;2022-12-29T04:38:17;99694.44;;;9.43;100.00
42111;BME280;27766;52.174;5.456;2022-12-29T04:40:44;99713.44;;;9.49;100.00
42111;BME280;27766;52.174;5.456;2022-12-29T04:43:12;99724.59;;;9.47;100.00
42111;BME280;27766;52.174;5.456;2022-12-29T04:45:43;99738.38;;;9.44;100.00
42111;BME280;27766;52.174;5.456;2022-12-29T04:48:10;99717.75;;;9.55;100.00
42111;BME280;27766;52.174;5.456;2022-12-29T04:50:39;99726.41;;;9.63;100.00
42111;BME280;27766;52.174;5.456;2022-12-29T04:53:06;99734.19;;;9.68;100.00
42111;BME280;27766;52.174;5.456;2022-12-29T04:55:34;99730.75;;;9.69;100.00
42111;BME280;27766;52.174;5.456;2022-12-29T04:58:01;99736.75;;;9.68;100.00
42111;BME280;27766;52.174;5.456;2022-12-29T05:00:28;99724.66;;;9.65;100.00
42111;BME280;27766;52.174;5.456;2022-12-29T05:02:55;99728.97;;;9.62;100.00
42111;BME280;27766;52.174;5.456;2022-12-29T05:05:22;99743.59;;;9.55;100.00
42111;BME280;27766;52.174;5.456;2022-12-29T05:07:49;99747.06;;;9.59;100.00
42111;BME280;27766;52.174;5.456;2022-12-29T05:10:16;99755.63;;;9.53;100.00
42111;BME280;27766;52.174;5.456;2022-12-29T05:12:44;99759.91;;;9.49;100.00
42111;BME280;27766;52.174;5.456;2022-12-29T05:15:11;99755.59;;;9.45;100.00
42111;BME280;27766;52.174;5.456;2022-12-29T05:17:38;99753.00;;;9.44;100.00
42111;BME280;27766;52.174;5.456;2022-12-29T05:20:06;99753.91;;;9.49;100.00
42111;BME280;27766;52.174;5.456;2022-12-29T05:22:34;99756.44;;;9.47;100.00
42111;BME280;27766;52.174;5.456;2022-12-29T05:25:01;99765.00;;;9.35;100.00
42111;BME280;27766;52.174;5.456;2022-12-29T05:27:28;99746.91;;;9.31;100.00
42111;BME280;27766;52.174;5.456;2022-12-29T05:29:55;99763.28;;;9.38;100.00
42111;BME280;27766;52.174;5.456;2022-12-29T05:32:22;99760.72;;;9.38;100.00
42111;BME280;27766;52.174;5.456;2022-12-29T05:34:49;99761.56;;;9.35;100.00
42111;BME280;27766;52.174;5.456;2022-12-29T05:37:16;99764.97;;;9.28;100.00
42111;BME280;27766;52.174;5.456;2022-12-29T05:39:44;99760.69;;;9.30;100.00
42111;BME280;27766;52.174;5.456;2022-12-29T05:42:11;99758.06;;;9.27;100.00
42111;BME280;27766;52.174;5.456;2022-12-29T05:44:38;99746.81;;;9.20;100.00
42111;BME280;27766;52.174;5.456;2022-12-29T05:47:06;99746.75;;;9.06;100.00
42111;BME280;27766;52.174;5.456;2022-12-29T05:49:33;99751.84;;;8.98;100.00
42111;BME280;27766;52.174;5.456;2022-12-29T05:52:00;99758.72;;;8.93;100.00
42111;BME280;27766;52.174;5.456;2022-12-29T05:54:27;99751.78;;;8.87;100.00
42111;BME280;27766;52.174;5.456;2022-12-29T05:56:55;99753.50;;;8.87;100.00
42111;BME280;27766;52.174;5.456;2022-12-29T05:59:22;99765.56;;;8.93;100.00
42111;BME280;27766;52.174;5.456;2022-12-29T06:01:49;99778.44;;;8.85;100.00
42111;BME280;27766;52.174;5.456;2022-12-29T06:04:16;99768.09;;;8.83;100.00
42111;BME280;27766;52.174;5.456;2022-12-29T06:06:43;99765.47;;;8.80;100.00
42111;BME280;27766;52.174;5.456;2022-12-29T06:09:10;99774.16;;;8.87;100.00
42111;BME280;27766;52.174;5.456;2022-12-29T06:11:37;99770.59;;;8.76;100.00
42111;BME280;27766;52.174;5.456;2022-12-29T06:14:04;99788.84;;;8.94;100.00
42111;BME280;27766;52.174;5.456;2022-12-29T06:16:33;99793.06;;;8.84;100.00
42111;BME280;27766;52.174;5.456;2022-12-29T06:19:00;99785.28;;;8.83;100.00
42111;BME280;27766;52.174;5.456;2022-12-29T06:21:27;99786.97;;;8.76;100.00
42111;BME280;27766;52.174;5.456;2022-12-29T06:23:54;99780.03;;;8.69;100.00
42111;BME280;27766;52.174;5.456;2022-12-29T06:26:21;99786.88;;;8.70;100.00
42111;BME280;27766;52.174;5.456;2022-12-29T06:28:48;99791.16;;;8.66;100.00
42111;BME280;27766;52.174;5.456;2022-12-29T06:31:16;99788.63;;;8.68;100.00
42111;BME280;27766;52.174;5.456;2022-12-29T06:33:43;99803.19;;;8.64;100.00
42111;BME280;27766;52.174;5.456;2022-12-29T06:36:15;99796.16;;;8.49;100.00
42111;BME280;27766;52.174;5.456;2022-12-29T06:38:43;99811.53;;;8.42;100.00
42111;BME280;27766;52.174;5.456;2022-12-29T06:41:10;99801.03;;;8.23;100.00
42111;BME280;27766;52.174;5.456;2022-12-29T06:43:37;99805.25;;;8.18;100.00
42111;BME280;27766;52.174;5.456;2022-12-29T06:46:06;99814.56;;;8.06;100.00
42111;BME280;27766;52.174;5.456;2022-12-29T06:48:33;99815.47;;;8.08;100.00
42111;BME280;27766;52.174;5.456;2022-12-29T06:51:00;99811.16;;;8.06;100.00
42111;BME280;27766;52.174;5.456;2022-12-29T06:53:27;99808.56;;;8.06;100.00
42111;BME280;27766;52.174;5.456;2022-12-29T06:55:54;99812.84;;;8.04;100.00
42111;BME280;27766;52.174;5.456;2022-12-29T06:58:23;99804.31;;;8.08;100.00
42111;BME280;27766;52.174;5.456;2022-12-29T07:00:50;99809.47;;;8.13;100.00
42111;BME280;27766;52.174;5.456;2022-12-29T07:03:17;99790.66;;;8.20;100.00
42111;BME280;27766;52.174;5.456;2022-12-29T07:05:44;99795.81;;;8.20;100.00
42111;BME280;27766;52.174;5.456;2022-12-29T07:08:12;99814.91;;;8.37;100.00
42111;BME280;27766;52.174;5.456;2022-12-29T07:10:39;99810.59;;;8.33;100.00
42111;BME280;27766;52.174;5.456;2022-12-29T07:13:06;99827.84;;;8.39;100.00
42111;BME280;27766;52.174;5.456;2022-12-29T07:15:37;99814.81;;;8.27;100.00
42111;BME280;27766;52.174;5.456;2022-12-29T07:18:04;99824.16;;;8.18;100.00
42111;BME280;27766;52.174;5.456;2022-12-29T07:20:33;99825.59;;;7.95;100.00
42111;BME280;27766;52.174;5.456;2022-12-29T07:23:01;99818.75;;;7.95;100.00
42111;BME280;27766;52.174;5.456;2022-12-29T07:25:28;99829.00;;;7.90;100.00
42111;BME280;27766;52.174;5.456;2022-12-29T07:27:56;99823.78;;;7.86;100.00
42111;BME280;27766;52.174;5.456;2022-12-29T07:30:23;99809.81;;;7.68;100.00
42111;BME280;27766;52.174;5.456;2022-12-29T07:32:50;99821.06;;;7.76;100.00
42111;BME280;27766;52.174;5.456;2022-12-29T07:35:17;99835.56;;;7.68;100.00
42111;BME280;27766;52.174;5.456;2022-12-29T07:37:44;99839.78;;;7.63;100.00
42111;BME280;27766;52.174;5.456;2022-12-29T07:40:11;99835.47;;;7.60;100.00
42111;BME280;27766;52.174;5.456;2022-12-29T07:42:40;99844.94;;;7.65;100.00
42111;BME280;27766;52.174;5.456;2022-12-29T07:45:07;99847.53;;;7.65;100.00
42111;BME280;27766;52.174;5.456;2022-12-29T07:47:36;99845.84;;;7.68;100.00
42111;BME280;27766;52.174;5.456;2022-12-29T07:50:04;99844.19;;;7.72;100.00
42111;BME280;27766;52.174;5.456;2022-12-29T07:52:32;99846.81;;;7.75;100.00
42111;BME280;27766;52.174;5.456;2022-12-29T07:54:59;99844.25;;;7.73;100.00
42111;BME280;27766;52.174;5.456;2022-12-29T07:57:26;99842.66;;;7.85;100.00
42111;BME280;27766;52.174;5.456;2022-12-29T07:59:58;99831.59;;;7.92;100.00
42111;BME280;27766;52.174;5.456;2022-12-29T08:02:25;99847.94;;;7.96;100.00
42111;BME280;27766;52.174;5.456;2022-12-29T08:04:56;99835.97;;;7.98;100.00
42111;BME280;27766;52.174;5.456;2022-12-29T08:07:23;99847.94;;;7.96;100.00
42111;BME280;27766;52.174;5.456;2022-12-29T08:09:50;99838.59;;;8.04;100.00
42111;BME280;27766;52.174;5.456;2022-12-29T08:12:18;99834.28;;;8.01;100.00
42111;BME280;27766;52.174;5.456;2022-12-29T08:14:45;99818.81;;;8.03;100.00
42111;BME280;27766;52.174;5.456;2022-12-29T08:17:12;99821.38;;;8.00;100.00
42111;BME280;27766;52.174;5.456;2022-12-29T08:19:40;99828.41;;;8.15;100.00
42111;BME280;27766;52.174;5.456;2022-12-29T08:22:09;99826.78;;;8.23;100.00
42111;BME280;27766;52.174;5.456;2022-12-29T08:24:37;99817.38;;;8.27;100.00
42111;BME280;27766;52.174;5.456;2022-12-29T08:27:04;99817.44;;;8.33;100.00
42111;BME280;27766;52.174;5.456;2022-12-29T08:29:43;99826.97;;;8.38;100.00
42111;BME280;27766;52.174;5.456;2022-12-29T08:32:11;99823.50;;;8.36;100.00
42111;BME280;27766;52.174;5.456;2022-12-29T08:34:38;99837.28;;;8.40;100.00
42111;BME280;27766;52.174;5.456;2022-12-29T08:37:06;99832.19;;;8.43;100.00
42111;BME280;27766;52.174;5.456;2022-12-29T08:39:33;99839.06;;;8.43;100.00
42111;BME280;27766;52.174;5.456;2022-12-29T08:42:02;99837.47;;;8.52;100.00
42111;BME280;27766;52.174;5.456;2022-12-29T08:44:29;99841.78;;;8.55;100.00
42111;BME280;27766;52.174;5.456;2022-12-29T08:46:56;99845.31;;;8.63;100.00
42111;BME280;27766;52.174;5.456;2022-12-29T08:49:23;99844.53;;;8.69;100.00
42111;BME280;27766;52.174;5.456;2022-12-29T08:51:50;99845.31;;;8.62;100.00
42111;BME280;27766;52.174;5.456;2022-12-29T08:54:17;99848.66;;;8.54;100.00
42111;BME280;27766;52.174;5.456;2022-12-29T08:56:44;99858.97;;;8.54;100.00
42111;BME280;27766;52.174;5.456;2022-12-29T08:59:11;99854.63;;;8.49;100.00
42111;BME280;27766;52.174;5.456;2022-12-29T09:01:39;99852.91;;;8.51;100.00
42111;BME280;27766;52.174;5.456;2022-12-29T09:04:08;99860.69;;;8.52;100.00
42111;BME280;27766;52.174;5.456;2022-12-29T09:06:44;99860.75;;;8.60;100.00
42111;BME280;27766;52.174;5.456;2022-12-29T09:09:12;99863.31;;;8.59;100.00
42111;BME280;27766;52.174;5.456;2022-12-29T09:11:39;99852.06;;;8.50;100.00
42111;BME280;27766;52.174;5.456;2022-12-29T09:14:07;99865.00;;;8.55;100.00
42111;BME280;27766;52.174;5.456;2022-12-29T09:16:36;99870.22;;;8.60;100.00
42111;BME280;27766;52.174;5.456;2022-12-29T09:19:04;99871.09;;;8.62;100.00
42111;BME280;27766;52.174;5.456;2022-12-29T09:21:32;99874.59;;;8.65;100.00
42111;BME280;27766;52.174;5.456;2022-12-29T09:23:59;99873.69;;;8.62;100.00
42111;BME280;27766;52.174;5.456;2022-12-29T09:26:26;99861.69;;;8.65;100.00
42111;BME280;27766;52.174;5.456;2022-12-29T09:28:53;99885.75;;;8.67;100.00
42111;BME280;27766;52.174;5.456;2022-12-29T09:31:20;99878.84;;;8.62;100.00
42111;BME280;27766;52.174;5.456;2022-12-29T09:33:49;99886.38;;;8.46;100.00
42111;BME280;27766;52.174;5.456;2022-12-29T09:36:16;99900.06;;;8.44;100.00
42111;BME280;27766;52.174;5.456;2022-12-29T09:38:43;99900.91;;;8.38;100.00
42111;BME280;27766;52.174;5.456;2022-12-29T09:41:47;99896.34;;;8.20;100.00
42111;BME280;27766;52.174;5.456;2022-12-29T09:44:30;99908.44;;;8.22;100.00
42111;BME280;27766;52.174;5.456;2022-12-29T09:47:00;99932.38;;;8.14;100.00
42111;BME280;27766;52.174;5.456;2022-12-29T09:52:00;99930.47;;;8.02;100.00
42111;BME280;27766;52.174;5.456;2022-12-29T09:54:39;99933.03;;;7.99;100.00
42111;BME280;27766;52.174;5.456;2022-12-29T09:57:15;99941.59;;;7.96;100.00
42111;BME280;27766;52.174;5.456;2022-12-29T09:59:46;99940.69;;;7.92;100.00
42111;BME280;27766;52.174;5.456;2022-12-29T10:04:45;99950.91;;;7.88;100.00
42111;BME280;27766;52.174;5.456;2022-12-29T10:07:18;99957.75;;;7.86;100.00
42111;BME280;27766;52.174;5.456;2022-12-29T10:10:06;99970.63;;;7.84;100.00
42111;BME280;27766;52.174;5.456;2022-12-29T10:12:58;99967.16;;;7.82;100.00
42111;BME280;27766;52.174;5.456;2022-12-29T10:21:43;99973.31;;;7.93;100.00
42111;BME280;27766;52.174;5.456;2022-12-29T10:24:14;99962.91;;;7.87;100.00
42111;BME280;27766;52.174;5.456;2022-12-29T10:26:43;99974.22;;;7.97;100.00
42111;BME280;27766;52.174;5.456;2022-12-29T10:29:18;99968.22;;;7.97;100.00
42111;BME280;27766;52.174;5.456;2022-12-29T10:32:06;99983.69;;;7.97;100.00
42111;BME280;27766;52.174;5.456;2022-12-29T10:34:38;99973.22;;;7.86;100.00
42111;BME280;27766;52.174;5.456;2022-12-29T10:43:29;100000.13;;;8.06;100.00
42111;BME280;27766;52.174;5.456;2022-12-29T10:46:00;100010.50;;;8.10;100.00
42111;BME280;27766;52.174;5.456;2022-12-29T10:48:31;100020.81;;;8.11;100.00
42111;BME280;27766;52.174;5.456;2022-12-29T10:51:02;100013.09;;;8.10;100.00
42111;BME280;27766;52.174;5.456;2022-12-29T10:53:38;100011.34;;;8.08;100.00
42111;BME280;27766;52.174;5.456;2022-12-29T10:56:29;100014.81;;;8.11;100.00
42111;BME280;27766;52.174;5.456;2022-12-29T11:07:08;100032.22;;;8.26;100.00
42111;BME280;27766;52.174;5.456;2022-12-29T11:09:41;100051.22;;;8.31;100.00
42111;BME280;27766;52.174;5.456;2022-12-29T11:12:24;100046.84;;;8.28;100.00
42111;BME280;27766;52.174;5.456;2022-12-29T11:15:02;100056.38;;;8.31;100.00
42111;BME280;27766;52.174;5.456;2022-12-29T11:17:56;100074.34;;;8.28;100.00
42111;BME280;27766;52.174;5.456;2022-12-29T11:20:38;100070.94;;;8.29;100.00
42111;BME280;27766;52.174;5.456;2022-12-29T11:28:38;100088.22;;;8.36;100.00
42111;BME280;27766;52.174;5.456;2022-12-29T11:31:07;100091.63;;;8.33;100.00
42111;BME280;27766;52.174;5.456;2022-12-29T11:33:37;100092.56;;;8.37;100.00
42111;BME280;27766;52.174;5.456;2022-12-29T11:36:20;100098.69;;;8.45;100.00
42111;BME280;27766;52.174;5.456;2022-12-29T11:38:51;100094.56;;;8.53;100.00
42111;BME280;27766;52.174;5.456;2022-12-29T11:41:24;100099.81;;;8.61;100.00
42111;BME280;27766;52.174;5.456;2022-12-29T11:43:54;100097.31;;;8.67;100.00
42111;BME280;27766;52.174;5.456;2022-12-29T11:46:39;100106.78;;;8.70;100.00
42111;BME280;27766;52.174;5.456;2022-12-29T11:49:13;100110.31;;;8.75;100.00
42111;BME280;27766;52.174;5.456;2022-12-29T11:51:45;100107.81;;;8.80;100.00
42111;BME280;27766;52.174;5.456;2022-12-29T11:54:26;100119.94;;;8.87;100.00
42111;BME280;27766;52.174;5.456;2022-12-29T11:56:54;100120.09;;;8.98;100.00
42111;BME280;27766;52.174;5.456;2022-12-29T12:01:57;100118.34;;;8.95;100.00
42111;BME280;27766;52.174;5.456;2022-12-29T12:04:28;100120.94;;;8.98;100.00
42111;BME280;27766;52.174;5.456;2022-12-29T12:07:18;100125.25;;;8.98;100.00
42111;BME280;27766;52.174;5.456;2022-12-29T12:09:51;100129.56;;;8.99;100.00
42111;BME280;27766;52.174;5.456;2022-12-29T12:12:41;100136.38;;;8.94;100.00
42111;BME280;27766;52.174;5.456;2022-12-29T12:15:17;100128.53;;;8.84;100.00
42111;BME280;27766;52.174;5.456;2022-12-29T12:17:50;100140.53;;;8.84;100.00
42111;BME280;27766;52.174;5.456;2022-12-29T12:20:32;100134.38;;;8.74;100.00
42111;BME280;27766;52.174;5.456;2022-12-29T12:23:09;100144.63;;;8.68;100.00
42111;BME280;27766;52.174;5.456;2022-12-29T12:25:44;100155.66;;;8.59;100.00
42111;BME280;27766;52.174;5.456;2022-12-29T12:28:19;100154.72;;;8.52;100.00
42111;BME280;27766;52.174;5.456;2022-12-29T12:30:50;100158.22;;;8.58;100.00
42111;BME280;27766;52.174;5.456;2022-12-29T12:33:40;100153.81;;;8.52;100.00
42111;BME280;27766;52.174;5.456;2022-12-29T12:36:27;100164.22;;;8.57;100.00
42111;BME280;27766;52.174;5.456;2022-12-29T12:39:10;100173.63;;;8.54;100.00
42111;BME280;27766;52.174;5.456;2022-12-29T12:44:39;100163.84;;;8.35;100.00
42111;BME280;27766;52.174;5.456;2022-12-29T12:47:22;100174.09;;;8.30;100.00
42111;BME280;27766;52.174;5.456;2022-12-29T12:50:03;100163.69;;;8.26;100.00
42111;BME280;27766;52.174;5.456;2022-12-29T12:53:01;100164.34;;;8.12;100.00
42111;BME280;27766;52.174;5.456;2022-12-29T13:04:01;100172.16;;;8.18;100.00
42111;BME280;27766;52.174;5.456;2022-12-29T13:06:51;100172.31;;;8.26;100.00
42111;BME280;27766;52.174;5.456;2022-12-29T13:09:31;100184.56;;;8.39;100.00
42111;BME280;27766;52.174;5.456;2022-12-29T13:15:34;100185.66;;;8.52;100.00
42111;BME280;27766;52.174;5.456;2022-12-29T13:20:44;100177.59;;;8.35;100.00
42111;BME280;27766;52.174;5.456;2022-12-29T13:23:26;100189.97;;;8.53;100.00
42111;BME280;27766;52.174;5.456;2022-12-29T13:26:14;100190.75;;;8.49;100.00
42111;BME280;27766;52.174;5.456;2022-12-29T13:29:17;100198.63;;;8.57;100.00
42111;BME280;27766;52.174;5.456;2022-12-29T13:31:52;100201.00;;;8.46;100.00
42111;BME280;27766;52.174;5.456;2022-12-29T13:37:16;100202.09;;;8.59;100.00
42111;BME280;27766;52.174;5.456;2022-12-29T13:39:57;100204.72;;;8.62;100.00
42111;BME280;27766;52.174;5.456;2022-12-29T13:42:26;100205.53;;;8.58;100.00
42111;BME280;27766;52.174;5.456;2022-12-29T13:45:00;100214.13;;;8.59;100.00
42111;BME280;27766;52.174;5.456;2022-12-29T13:48:30;100209.75;;;8.54;100.00
42111;BME280;27766;52.174;5.456;2022-12-29T13:50:34;100208.97;;;8.57;100.00
42111;BME280;27766;52.174;5.456;2022-12-29T13:58:36;100209.81;;;8.58;100.00
42111;BME280;27766;52.174;5.456;2022-12-29T14:03:55;100199.56;;;8.61;100.00
42111;BME280;27766;52.174;5.456;2022-12-29T14:06:34;100198.81;;;8.68;100.00
42111;BME280;27766;52.174;5.456;2022-12-29T14:09:53;100201.41;;;8.69;100.00
42111;BME280;27766;52.174;5.456;2022-12-29T14:12:39;100212.38;;;8.58;100.00
42111;BME280;27766;52.174;5.456;2022-12-29T14:17:37;100232.97;;;8.54;100.00
42111;BME280;27766;52.174;5.456;2022-12-29T14:20:16;100248.94;;;8.33;100.00
42111;BME280;27766;52.174;5.456;2022-12-29T14:23:00;100226.84;;;8.00;100.00
42111;BME280;27766;52.174;5.456;2022-12-29T14:26:09;100240.31;;;7.85;100.00
42111;BME280;27766;52.174;5.456;2022-12-29T14:28:38;100231.63;;;7.82;100.00
42111;BME280;27766;52.174;5.456;2022-12-29T14:39:36;100247.75;;;7.71;100.00
42111;BME280;27766;52.174;5.456;2022-12-29T14:47:37;100256.81;;;7.52;100.00
42111;BME280;27766;52.174;5.456;2022-12-29T14:57:44;100254.84;;;7.40;100.00
42111;BME280;27766;52.174;5.456;2022-12-29T15:00:24;100259.06;;;7.37;100.00
42111;BME280;27766;52.174;5.456;2022-12-29T15:03:13;100238.28;;;7.29;100.00
42111;BME280;27766;52.174;5.456;2022-12-29T15:05:48;100252.09;;;7.33;100.00
42111;BME280;27766;52.174;5.456;2022-12-29T15:08:21;100260.75;;;7.36;100.00
42111;BME280;27766;52.174;5.456;2022-12-29T15:11:15;100252.28;;;7.40;100.00
42111;BME280;27766;52.174;5.456;2022-12-29T15:13:44;100253.06;;;7.38;100.00
42111;BME280;27766;52.174;5.456;2022-12-29T15:16:31;100262.59;;;7.42;100.00
42111;BME280;27766;52.174;5.456;2022-12-29T15:19:00;100254.03;;;7.43;100.00
42111;BME280;27766;52.174;5.456;2022-12-29T15:21:34;100249.75;;;7.43;100.00
42111;BME280;27766;52.174;5.456;2022-12-29T15:24:03;100248.91;;;7.44;100.00
42111;BME280;27766;52.174;5.456;2022-12-29T15:26:57;100246.34;;;7.44;100.00
42111;BME280;27766;52.174;5.456;2022-12-29T15:29:38;100244.66;;;7.47;100.00